sensor_id;sensor_type;location;lat;lon;timestamp;temperature;humidity
20288;DHT22;10303;51.960;8.372;2022-11-20T00:03:40;0.30;91.50
20288;DHT22;10303;51.960;8.372;2022-11-20T00:06:10;0.30;91.60
20288;DHT22;10303;51.960;8.372;2022-11-20T00:08:38;0.30;91.60
20288;DHT22;10303;51.960;8.372;2022-11-20T00:11:18;0.30;91.60
20288;DHT22;10303;51.960;8.372;2022-11-20T00:13:47;0.30;91.70
20288;DHT22;10303;51.960;8.372;2022-11-20T00:16:17;0.20;91.60
20288;DHT22;10303;51.960;8.372;2022-11-20T00:18:45;0.20;91.60
20288;DHT22;10303;51.960;8.372;2022-11-20T00:21:14;0.30;91.70
20288;DHT22;10303;51.960;8.372;2022-11-20T00:23:43;0.20;91.70
20288;DHT22;10303;51.960;8.372;2022-11-20T00:26:12;0.40;91.70
20288;DHT22;10303;51.960;8.372;2022-11-20T00:28:40;0.20;91.60
20288;DHT22;10303;51.960;8.372;2022-11-20T00:31:11;0.20;91.60
20288;DHT22;10303;51.960;8.372;2022-11-20T00:33:39;0.20;91.60
20288;DHT22;10303;51.960;8.372;2022-11-20T00:36:10;0.20;91.60
20288;DHT22;10303;51.960;8.372;2022-11-20T00:38:38;0.10;91.60
20288;DHT22;10303;51.960;8.372;2022-11-20T00:41:07;0.10;91.60
20288;DHT22;10303;51.960;8.372;2022-11-20T00:43:36;0.10;91.70
20288;DHT22;10303;51.960;8.372;2022-11-20T00:46:14;0.00;91.70
20288;DHT22;10303;51.960;8.372;2022-11-20T00:48:43;0.10;91.80
20288;DHT22;10303;51.960;8.372;2022-11-20T00:51:11;0.00;91.70
20288;DHT22;10303;51.960;8.372;2022-11-20T00:53:41;0.10;91.70
20288;DHT22;10303;51.960;8.372;2022-11-20T00:56:10;0.00;91.70
20288;DHT22;10303;51.960;8.372;2022-11-20T00:58:39;0.10;91.70
20288;DHT22;10303;51.960;8.372;2022-11-20T01:03:50;-0.10;91.60
20288;DHT22;10303;51.960;8.372;2022-11-20T01:06:26;0.10;91.70
20288;DHT22;10303;51.960;8.372;2022-11-20T01:08:56;-0.10;91.60
20288;DHT22;10303;51.960;8.372;2022-11-20T01:11:27;0.00;91.60
20288;DHT22;10303;51.960;8.372;2022-11-20T01:13:56;-0.20;91.60
20288;DHT22;10303;51.960;8.372;2022-11-20T01:16:35;0.00;91.70
20288;DHT22;10303;51.960;8.372;2022-11-20T01:19:07;0.00;91.80
20288;DHT22;10303;51.960;8.372;2022-11-20T01:21:38;-0.20;91.70
20288;DHT22;10303;51.960;8.372;2022-11-20T01:24:07;-0.20;91.70
20288;DHT22;10303;51.960;8.372;2022-11-20T01:26:37;-0.20;91.70
20288;DHT22;10303;51.960;8.372;2022-11-20T01:29:05;-0.30;91.70
20288;DHT22;10303;51.960;8.372;2022-11-20T01:31:35;-0.30;91.70
20288;DHT22;10303;51.960;8.372;2022-11-20T01:34:05;-0.30;91.70
20288;DHT22;10303;51.960;8.372;2022-11-20T01:36:34;-0.30;91.70
20288;DHT22;10303;51.960;8.372;2022-11-20T01:39:07;-0.10;91.70
20288;DHT22;10303;51.960;8.372;2022-11-20T01:41:37;-0.30;91.70
20288;DHT22;10303;51.960;8.372;2022-11-20T01:47:28;-0.30;91.90
20288;DHT22;10303;51.960;8.372;2022-11-20T01:50:18;-0.40;91.80
20288;DHT22;10303;51.960;8.372;2022-11-20T01:53:01;-0.40;91.80
20288;DHT22;10303;51.960;8.372;2022-11-20T01:55:34;-0.40;91.70
20288;DHT22;10303;51.960;8.372;2022-11-20T01:58:04;-0.50;91.70
20288;DHT22;10303;51.960;8.372;2022-11-20T02:00:31;-0.50;91.70
20288;DHT22;10303;51.960;8.372;2022-11-20T02:03:00;-0.50;91.70
20288;DHT22;10303;51.960;8.372;2022-11-20T02:08:21;-0.50;91.90
20288;DHT22;10303;51.960;8.372;2022-11-20T02:10:48;-0.60;91.80
20288;DHT22;10303;51.960;8.372;2022-11-20T02:13:15;-0.60;91.80
20288;DHT22;10303;51.960;8.372;2022-11-20T02:16:01;-0.60;91.80
20288;DHT22;10303;51.960;8.372;2022-11-20T02:18:28;-0.60;91.80
20288;DHT22;10303;51.960;8.372;2022-11-20T02:21:03;-0.60;91.80
20288;DHT22;10303;51.960;8.372;2022-11-20T02:23:39;-0.70;91.80
20288;DHT22;10303;51.960;8.372;2022-11-20T02:26:22;-0.60;91.80
20288;DHT22;10303;51.960;8.372;2022-11-20T02:28:50;-0.60;91.80
20288;DHT22;10303;51.960;8.372;2022-11-20T02:31:16;-0.70;91.80
20288;DHT22;10303;51.960;8.372;2022-11-20T02:33:42;-0.70;91.80
20288;DHT22;10303;51.960;8.372;2022-11-20T02:36:12;-0.70;91.80
20288;DHT22;10303;51.960;8.372;2022-11-20T02:38:41;-0.70;91.90
20288;DHT22;10303;51.960;8.372;2022-11-20T02:41:08;-0.70;91.90
20288;DHT22;10303;51.960;8.372;2022-11-20T02:43:34;-0.80;91.90
20288;DHT22;10303;51.960;8.372;2022-11-20T02:46:00;-0.80;91.90
20288;DHT22;10303;51.960;8.372;2022-11-20T02:48:26;-0.80;91.90
20288;DHT22;10303;51.960;8.372;2022-11-20T02:50:52;-0.80;91.90
20288;DHT22;10303;51.960;8.372;2022-11-20T02:53:18;-0.70;92.00
20288;DHT22;10303;51.960;8.372;2022-11-20T02:55:45;-0.80;91.90
20288;DHT22;10303;51.960;8.372;2022-11-20T02:58:11;-0.80;91.90
20288;DHT22;10303;51.960;8.372;2022-11-20T03:00:36;-0.80;91.90
20288;DHT22;10303;51.960;8.372;2022-11-20T03:03:02;-0.80;92.00
20288;DHT22;10303;51.960;8.372;2022-11-20T03:05:28;-0.80;92.00
20288;DHT22;10303;51.960;8.372;2022-11-20T03:07:54;-0.90;91.90
20288;DHT22;10303;51.960;8.372;2022-11-20T03:10:20;-0.50;92.00
20288;DHT22;10303;51.960;8.372;2022-11-20T03:12:46;-0.90;91.90
20288;DHT22;10303;51.960;8.372;2022-11-20T03:15:13;-0.90;91.90
20288;DHT22;10303;51.960;8.372;2022-11-20T03:17:39;-0.90;91.90
20288;DHT22;10303;51.960;8.372;2022-11-20T03:20:05;-0.90;91.90
20288;DHT22;10303;51.960;8.372;2022-11-20T03:22:32;-1.00;92.00
20288;DHT22;10303;51.960;8.372;2022-11-20T03:24:58;-1.00;92.00
20288;DHT22;10303;51.960;8.372;2022-11-20T03:27:24;-1.00;91.90
20288;DHT22;10303;51.960;8.372;2022-11-20T03:29:50;-1.00;91.90
20288;DHT22;10303;51.960;8.372;2022-11-20T03:32:16;-0.50;92.10
20288;DHT22;10303;51.960;8.372;2022-11-20T03:34:42;-1.00;91.90
20288;DHT22;10303;51.960;8.372;2022-11-20T03:37:08;-1.00;91.90
20288;DHT22;10303;51.960;8.372;2022-11-20T03:39:34;-1.00;92.00
20288;DHT22;10303;51.960;8.372;2022-11-20T03:42:00;-1.10;91.90
20288;DHT22;10303;51.960;8.372;2022-11-20T03:44:26;-0.90;92.00
20288;DHT22;10303;51.960;8.372;2022-11-20T03:46:52;-1.10;92.00
20288;DHT22;10303;51.960;8.372;2022-11-20T03:49:18;-1.10;92.00
20288;DHT22;10303;51.960;8.372;2022-11-20T03:51:43;-1.20;92.00
20288;DHT22;10303;51.960;8.372;2022-11-20T03:54:09;-1.20;91.90
20288;DHT22;10303;51.960;8.372;2022-11-20T03:56:37;-0.40;92.10
20288;DHT22;10303;51.960;8.372;2022-11-20T03:59:05;-1.00;92.00
20288;DHT22;10303;51.960;8.372;2022-11-20T04:01:34;-1.20;91.90
20288;DHT22;10303;51.960;8.372;2022-11-20T04:04:01;-0.90;92.00
20288;DHT22;10303;51.960;8.372;2022-11-20T04:06:30;-1.10;91.90
20288;DHT22;10303;51.960;8.372;2022-11-20T04:09:00;-1.30;91.90
20288;DHT22;10303;51.960;8.372;2022-11-20T04:11:31;-0.80;92.00
20288;DHT22;10303;51.960;8.372;2022-11-20T04:14:04;-1.10;92.00
20288;DHT22;10303;51.960;8.372;2022-11-20T04:16:34;-1.30;91.90
20288;DHT22;10303;51.960;8.372;2022-11-20T04:19:03;-1.20;92.00
20288;DHT22;10303;51.960;8.372;2022-11-20T04:21:32;-1.40;91.90
20288;DHT22;10303;51.960;8.372;2022-11-20T04:23:59;-1.20;92.00
20288;DHT22;10303;51.960;8.372;2022-11-20T04:26:26;-1.40;91.90
20288;DHT22;10303;51.960;8.372;2022-11-20T04:28:53;-0.80;92.10
20288;DHT22;10303;51.960;8.372;2022-11-20T04:31:26;-1.40;91.90
20288;DHT22;10303;51.960;8.372;2022-11-20T04:33:53;-0.90;92.10
20288;DHT22;10303;51.960;8.372;2022-11-20T04:36:21;-0.60;92.20
20288;DHT22;10303;51.960;8.372;2022-11-20T04:38:54;-1.50;91.90
20288;DHT22;10303;51.960;8.372;2022-11-20T04:41:24;-1.50;91.90
20288;DHT22;10303;51.960;8.372;2022-11-20T04:43:57;-1.30;92.00
20288;DHT22;10303;51.960;8.372;2022-11-20T04:46:28;-1.00;92.10
20288;DHT22;10303;51.960;8.372;2022-11-20T04:48:56;-1.30;92.00
20288;DHT22;10303;51.960;8.372;2022-11-20T04:51:22;-1.60;91.90
20288;DHT22;10303;51.960;8.372;2022-11-20T04:53:48;-1.60;91.90
20288;DHT22;10303;51.960;8.372;2022-11-20T04:56:14;-1.60;91.80
20288;DHT22;10303;51.960;8.372;2022-11-20T04:58:41;-1.60;91.80
20288;DHT22;10303;51.960;8.372;2022-11-20T05:01:14;-1.30;91.90
20288;DHT22;10303;51.960;8.372;2022-11-20T05:03:41;-1.60;91.90
20288;DHT22;10303;51.960;8.372;2022-11-20T05:06:09;-1.60;91.90
20288;DHT22;10303;51.960;8.372;2022-11-20T05:08:40;-1.50;92.00
20288;DHT22;10303;51.960;8.372;2022-11-20T05:11:12;-1.70;91.90
20288;DHT22;10303;51.960;8.372;2022-11-20T05:13:40;-1.60;92.00
20288;DHT22;10303;51.960;8.372;2022-11-20T05:16:08;-1.60;92.00
20288;DHT22;10303;51.960;8.372;2022-11-20T05:18:37;-1.70;92.00
20288;DHT22;10303;51.960;8.372;2022-11-20T05:21:04;-0.90;92.20
20288;DHT22;10303;51.960;8.372;2022-11-20T05:23:31;-1.70;92.00
20288;DHT22;10303;51.960;8.372;2022-11-20T05:25:58;-1.20;92.20
20288;DHT22;10303;51.960;8.372;2022-11-20T05:28:25;-1.70;92.00
20288;DHT22;10303;51.960;8.372;2022-11-20T05:30:53;-1.80;92.00
20288;DHT22;10303;51.960;8.372;2022-11-20T05:33:19;-1.20;92.20
20288;DHT22;10303;51.960;8.372;2022-11-20T05:35:45;-1.80;92.00
20288;DHT22;10303;51.960;8.372;2022-11-20T05:38:11;-1.50;92.20
20288;DHT22;10303;51.960;8.372;2022-11-20T05:40:37;-1.90;92.00
20288;DHT22;10303;51.960;8.372;2022-11-20T05:43:03;-1.80;92.00
20288;DHT22;10303;51.960;8.372;2022-11-20T05:45:29;-1.20;92.50
20288;DHT22;10303;51.960;8.372;2022-11-20T05:47:58;-1.90;92.00
20288;DHT22;10303;51.960;8.372;2022-11-20T05:50:28;-1.90;92.00
20288;DHT22;10303;51.960;8.372;2022-11-20T05:52:54;-1.80;92.10
20288;DHT22;10303;51.960;8.372;2022-11-20T05:55:20;-1.90;92.10
20288;DHT22;10303;51.960;8.372;2022-11-20T05:57:46;-1.50;92.20
20288;DHT22;10303;51.960;8.372;2022-11-20T06:00:12;-1.90;92.10
20288;DHT22;10303;51.960;8.372;2022-11-20T06:02:39;-2.00;92.10
20288;DHT22;10303;51.960;8.372;2022-11-20T06:05:05;-2.00;92.10
20288;DHT22;10303;51.960;8.372;2022-11-20T06:07:31;-2.00;92.10
20288;DHT22;10303;51.960;8.372;2022-11-20T06:09:57;-2.00;92.00
20288;DHT22;10303;51.960;8.372;2022-11-20T06:12:23;-2.00;92.10
20288;DHT22;10303;51.960;8.372;2022-11-20T06:14:49;-2.00;92.10
20288;DHT22;10303;51.960;8.372;2022-11-20T06:17:15;-2.00;92.10
20288;DHT22;10303;51.960;8.372;2022-11-20T06:19:41;-2.10;92.10
20288;DHT22;10303;51.960;8.372;2022-11-20T06:22:06;-2.10;92.20
20288;DHT22;10303;51.960;8.372;2022-11-20T06:24:32;-1.60;92.40
20288;DHT22;10303;51.960;8.372;2022-11-20T06:26:58;-2.00;92.30
20288;DHT22;10303;51.960;8.372;2022-11-20T06:29:24;-1.90;92.40
20288;DHT22;10303;51.960;8.372;2022-11-20T06:31:50;-2.10;92.30
20288;DHT22;10303;51.960;8.372;2022-11-20T06:34:16;-1.90;92.50
20288;DHT22;10303;51.960;8.372;2022-11-20T06:36:42;-2.10;92.40
20288;DHT22;10303;51.960;8.372;2022-11-20T06:39:08;-2.10;92.40
20288;DHT22;10303;51.960;8.372;2022-11-20T06:41:34;-2.10;92.40
20288;DHT22;10303;51.960;8.372;2022-11-20T06:44:00;-1.50;92.50
20288;DHT22;10303;51.960;8.372;2022-11-20T06:46:26;-2.10;92.40
20288;DHT22;10303;51.960;8.372;2022-11-20T06:48:52;-1.90;92.40
20288;DHT22;10303;51.960;8.372;2022-11-20T06:51:18;-2.10;92.40
20288;DHT22;10303;51.960;8.372;2022-11-20T06:53:44;-2.00;92.50
20288;DHT22;10303;51.960;8.372;2022-11-20T06:56:11;-2.10;92.60
20288;DHT22;10303;51.960;8.372;2022-11-20T06:58:37;-2.00;92.80
20288;DHT22;10303;51.960;8.372;2022-11-20T07:01:11;-2.00;92.90
20288;DHT22;10303;51.960;8.372;2022-11-20T07:03:39;-2.10;93.00
20288;DHT22;10303;51.960;8.372;2022-11-20T07:06:06;-1.20;93.30
20288;DHT22;10303;51.960;8.372;2022-11-20T07:08:33;-2.00;93.20
20288;DHT22;10303;51.960;8.372;2022-11-20T07:11:02;-1.90;93.30
20288;DHT22;10303;51.960;8.372;2022-11-20T07:13:30;-1.90;93.40
20288;DHT22;10303;51.960;8.372;2022-11-20T07:16:01;-1.50;93.60
20288;DHT22;10303;51.960;8.372;2022-11-20T07:18:28;-1.70;93.70
20288;DHT22;10303;51.960;8.372;2022-11-20T07:20:55;-1.80;93.70
20288;DHT22;10303;51.960;8.372;2022-11-20T07:23:21;-1.10;94.00
20288;DHT22;10303;51.960;8.372;2022-11-20T07:25:47;-1.70;93.90
20288;DHT22;10303;51.960;8.372;2022-11-20T07:28:13;-1.60;94.00
20288;DHT22;10303;51.960;8.372;2022-11-20T07:30:39;-1.60;94.00
20288;DHT22;10303;51.960;8.372;2022-11-20T07:33:05;-1.40;94.20
20288;DHT22;10303;51.960;8.372;2022-11-20T07:35:31;-1.40;94.30
20288;DHT22;10303;51.960;8.372;2022-11-20T07:37:58;-1.40;94.30
20288;DHT22;10303;51.960;8.372;2022-11-20T07:40:23;-1.40;94.50
20288;DHT22;10303;51.960;8.372;2022-11-20T07:42:51;-1.20;94.60
20288;DHT22;10303;51.960;8.372;2022-11-20T07:45:19;-1.20;94.80
20288;DHT22;10303;51.960;8.372;2022-11-20T07:47:46;-1.10;94.80
20288;DHT22;10303;51.960;8.372;2022-11-20T07:50:14;-1.10;94.90
20288;DHT22;10303;51.960;8.372;2022-11-20T07:52:42;-1.00;95.00
20288;DHT22;10303;51.960;8.372;2022-11-20T07:55:09;-1.00;95.10
20288;DHT22;10303;51.960;8.372;2022-11-20T07:57:36;-0.90;95.20
20288;DHT22;10303;51.960;8.372;2022-11-20T08:00:06;-0.90;95.20
20288;DHT22;10303;51.960;8.372;2022-11-20T08:02:40;-0.80;95.40
20288;DHT22;10303;51.960;8.372;2022-11-20T08:05:09;-0.70;95.70
20288;DHT22;10303;51.960;8.372;2022-11-20T08:07:40;-0.70;95.50
20288;DHT22;10303;51.960;8.372;2022-11-20T08:10:10;-0.60;95.60
20288;DHT22;10303;51.960;8.372;2022-11-20T08:12:49;-0.50;95.60
20288;DHT22;10303;51.960;8.372;2022-11-20T08:15:36;-0.50;95.70
20288;DHT22;10303;51.960;8.372;2022-11-20T08:18:08;-0.40;95.80
20288;DHT22;10303;51.960;8.372;2022-11-20T08:20:39;-0.30;96.00
20288;DHT22;10303;51.960;8.372;2022-11-20T08:23:07;-0.30;96.00
20288;DHT22;10303;51.960;8.372;2022-11-20T08:25:35;-0.20;96.10
20288;DHT22;10303;51.960;8.372;2022-11-20T08:28:05;-0.10;96.20
20288;DHT22;10303;51.960;8.372;2022-11-20T08:30:33;0.10;96.30
20288;DHT22;10303;51.960;8.372;2022-11-20T08:33:05;0.00;96.40
20288;DHT22;10303;51.960;8.372;2022-11-20T08:35:38;0.10;97.00
20288;DHT22;10303;51.960;8.372;2022-11-20T08:38:05;0.10;96.70
20288;DHT22;10303;51.960;8.372;2022-11-20T08:40:32;0.20;96.80
20288;DHT22;10303;51.960;8.372;2022-11-20T08:42:59;0.30;97.00
20288;DHT22;10303;51.960;8.372;2022-11-20T08:45:26;0.40;97.20
20288;DHT22;10303;51.960;8.372;2022-11-20T08:47:52;0.60;97.30
20288;DHT22;10303;51.960;8.372;2022-11-20T08:50:18;0.60;97.40
20288;DHT22;10303;51.960;8.372;2022-11-20T08:52:44;0.70;97.70
20288;DHT22;10303;51.960;8.372;2022-11-20T08:55:11;0.80;97.90
20288;DHT22;10303;51.960;8.372;2022-11-20T08:57:37;0.90;98.50
20288;DHT22;10303;51.960;8.372;2022-11-20T09:00:06;1.20;99.30
20288;DHT22;10303;51.960;8.372;2022-11-20T09:02:33;1.30;99.90
20288;DHT22;10303;51.960;8.372;2022-11-20T09:04:59;1.60;99.90
20288;DHT22;10303;51.960;8.372;2022-11-20T09:07:28;1.90;99.90
20288;DHT22;10303;51.960;8.372;2022-11-20T09:09:54;2.20;99.90
20288;DHT22;10303;51.960;8.372;2022-11-20T09:12:20;2.50;99.90
20288;DHT22;10303;51.960;8.372;2022-11-20T09:14:46;2.90;99.90
20288;DHT22;10303;51.960;8.372;2022-11-20T09:17:12;3.20;99.90
20288;DHT22;10303;51.960;8.372;2022-11-20T09:19:40;3.60;99.90
20288;DHT22;10303;51.960;8.372;2022-11-20T09:22:06;4.00;99.90
20288;DHT22;10303;51.960;8.372;2022-11-20T09:24:32;4.30;99.90
20288;DHT22;10303;51.960;8.372;2022-11-20T09:27:01;4.50;99.90
20288;DHT22;10303;51.960;8.372;2022-11-20T09:29:29;4.70;99.90
20288;DHT22;10303;51.960;8.372;2022-11-20T09:31:55;4.90;99.90
20288;DHT22;10303;51.960;8.372;2022-11-20T09:34:21;5.10;99.90
20288;DHT22;10303;51.960;8.372;2022-11-20T09:36:49;5.20;99.90
20288;DHT22;10303;51.960;8.372;2022-11-20T10:04:17;6.40;99.90
20288;DHT22;10303;51.960;8.372;2022-11-20T10:07:47;6.50;99.90
20288;DHT22;10303;51.960;8.372;2022-11-20T10:10:00;6.60;99.90
20288;DHT22;10303;51.960;8.372;2022-11-20T10:12:41;6.60;99.90
20288;DHT22;10303;51.960;8.372;2022-11-20T10:15:15;6.70;99.90
20288;DHT22;10303;51.960;8.372;2022-11-20T10:20:40;6.80;99.90
20288;DHT22;10303;51.960;8.372;2022-11-20T10:26:55;7.00;99.90
20288;DHT22;10303;51.960;8.372;2022-11-20T10:29:42;7.10;99.90
20288;DHT22;10303;51.960;8.372;2022-11-20T10:32:20;7.20;99.90
20288;DHT22;10303;51.960;8.372;2022-11-20T10:34:54;7.40;99.90
20288;DHT22;10303;51.960;8.372;2022-11-20T10:37:29;7.60;99.90
20288;DHT22;10303;51.960;8.372;2022-11-20T10:42:48;8.10;99.90
20288;DHT22;10303;51.960;8.372;2022-11-20T10:46:00;8.40;99.90
20288;DHT22;10303;51.960;8.372;2022-11-20T10:48:32;8.60;99.90
20288;DHT22;10303;51.960;8.372;2022-11-20T10:51:36;8.80;99.90
20288;DHT22;10303;51.960;8.372;2022-11-20T10:54:17;9.10;99.90
20288;DHT22;10303;51.960;8.372;2022-11-20T10:56:53;9.20;99.50
20288;DHT22;10303;51.960;8.372;2022-11-20T11:02:22;9.80;99.90
20288;DHT22;10303;51.960;8.372;2022-11-20T11:04:54;10.00;99.50
20288;DHT22;10303;51.960;8.372;2022-11-20T11:07:30;10.30;99.70
20288;DHT22;10303;51.960;8.372;2022-11-20T11:10:05;10.50;99.90
20288;DHT22;10303;51.960;8.372;2022-11-20T11:12:49;10.80;99.90
20288;DHT22;10303;51.960;8.372;2022-11-20T11:15:36;11.00;99.90
20288;DHT22;10303;51.960;8.372;2022-11-20T11:18:04;11.30;99.80
20288;DHT22;10303;51.960;8.372;2022-11-20T11:20:34;11.50;99.60
20288;DHT22;10303;51.960;8.372;2022-11-20T11:23:00;11.80;99.80
20288;DHT22;10303;51.960;8.372;2022-11-20T11:27:57;12.20;97.60
20288;DHT22;10303;51.960;8.372;2022-11-20T11:30:27;12.30;97.60
20288;DHT22;10303;51.960;8.372;2022-11-20T11:33:10;12.50;96.60
20288;DHT22;10303;51.960;8.372;2022-11-20T11:35:49;12.70;95.00
20288;DHT22;10303;51.960;8.372;2022-11-20T11:38:30;12.90;95.70
20288;DHT22;10303;51.960;8.372;2022-11-20T11:41:04;13.10;95.80
20288;DHT22;10303;51.960;8.372;2022-11-20T11:43:36;12.20;95.40
20288;DHT22;10303;51.960;8.372;2022-11-20T11:46:31;12.10;94.70
20288;DHT22;10303;51.960;8.372;2022-11-20T11:49:08;13.40;93.90
20288;DHT22;10303;51.960;8.372;2022-11-20T11:52:09;13.50;93.70
20288;DHT22;10303;51.960;8.372;2022-11-20T11:54:53;13.50;93.50
20288;DHT22;10303;51.960;8.372;2022-11-20T11:57:36;13.50;92.20
20288;DHT22;10303;51.960;8.372;2022-11-20T12:00:18;13.60;92.70
20288;DHT22;10303;51.960;8.372;2022-11-20T12:05:26;13.50;91.80
20288;DHT22;10303;51.960;8.372;2022-11-20T12:08:20;13.50;91.30
20288;DHT22;10303;51.960;8.372;2022-11-20T12:14:21;13.50;90.60
20288;DHT22;10303;51.960;8.372;2022-11-20T12:16:52;13.40;90.20
20288;DHT22;10303;51.960;8.372;2022-11-20T12:19:21;13.40;90.10
20288;DHT22;10303;51.960;8.372;2022-11-20T12:25:00;13.20;88.40
20288;DHT22;10303;51.960;8.372;2022-11-20T12:30:40;13.10;90.70
20288;DHT22;10303;51.960;8.372;2022-11-20T12:36:44;13.10;91.00
20288;DHT22;10303;51.960;8.372;2022-11-20T12:39:39;13.20;90.20
20288;DHT22;10303;51.960;8.372;2022-11-20T12:42:53;13.20;89.20
20288;DHT22;10303;51.960;8.372;2022-11-20T13:00:21;12.20;85.40
20288;DHT22;10303;51.960;8.372;2022-11-20T13:03:27;12.00;85.00
20288;DHT22;10303;51.960;8.372;2022-11-20T13:08:37;11.70;87.40
20288;DHT22;10303;51.960;8.372;2022-11-20T13:11:42;11.70;88.90
20288;DHT22;10303;51.960;8.372;2022-11-20T13:19:39;11.60;88.60
20288;DHT22;10303;51.960;8.372;2022-11-20T13:22:07;11.60;89.90
20288;DHT22;10303;51.960;8.372;2022-11-20T13:24:35;11.60;89.80
20288;DHT22;10303;51.960;8.372;2022-11-20T13:27:02;11.60;89.90
20288;DHT22;10303;51.960;8.372;2022-11-20T13:29:46;11.60;89.80
20288;DHT22;10303;51.960;8.372;2022-11-20T13:32:24;11.50;89.10
20288;DHT22;10303;51.960;8.372;2022-11-20T13:35:03;11.50;89.00
20288;DHT22;10303;51.960;8.372;2022-11-20T13:37:33;11.40;88.00
20288;DHT22;10303;51.960;8.372;2022-11-20T13:43:02;11.30;88.30
20288;DHT22;10303;51.960;8.372;2022-11-20T13:45:33;11.20;88.40
20288;DHT22;10303;51.960;8.372;2022-11-20T13:48:04;11.00;88.30
20288;DHT22;10303;51.960;8.372;2022-11-20T13:57:08;10.70;88.00
20288;DHT22;10303;51.960;8.372;2022-11-20T14:02:26;10.40;88.50
20288;DHT22;10303;51.960;8.372;2022-11-20T14:04:58;10.30;88.90
20288;DHT22;10303;51.960;8.372;2022-11-20T14:07:39;10.20;89.20
20288;DHT22;10303;51.960;8.372;2022-11-20T14:10:40;10.20;89.40
20288;DHT22;10303;51.960;8.372;2022-11-20T14:13:18;10.10;89.90
20288;DHT22;10303;51.960;8.372;2022-11-20T14:15:46;10.00;89.50
20288;DHT22;10303;51.960;8.372;2022-11-20T14:18:20;10.00;89.60
20288;DHT22;10303;51.960;8.372;2022-11-20T14:20:47;9.90;89.60
20288;DHT22;10303;51.960;8.372;2022-11-20T14:23:26;9.80;89.60
20288;DHT22;10303;51.960;8.372;2022-11-20T14:25:54;9.70;89.70
20288;DHT22;10303;51.960;8.372;2022-11-20T14:28:28;9.70;89.70
20288;DHT22;10303;51.960;8.372;2022-11-20T14:30:57;9.60;89.70
20288;DHT22;10303;51.960;8.372;2022-11-20T14:33:25;9.50;89.70
20288;DHT22;10303;51.960;8.372;2022-11-20T14:35:54;9.50;89.70
20288;DHT22;10303;51.960;8.372;2022-11-20T14:38:26;9.40;89.80
20288;DHT22;10303;51.960;8.372;2022-11-20T14:40:53;9.30;89.90
20288;DHT22;10303;51.960;8.372;2022-11-20T14:43:32;9.20;89.90
20288;DHT22;10303;51.960;8.372;2022-11-20T14:46:07;9.10;90.00
20288;DHT22;10303;51.960;8.372;2022-11-20T14:48:43;9.10;90.00
20288;DHT22;10303;51.960;8.372;2022-11-20T14:51:33;9.00;90.10
20288;DHT22;10303;51.960;8.372;2022-11-20T14:54:19;8.90;90.10
20288;DHT22;10303;51.960;8.372;2022-11-20T14:56:58;8.90;90.20
20288;DHT22;10303;51.960;8.372;2022-11-20T14:59:32;8.80;90.20
20288;DHT22;10303;51.960;8.372;2022-11-20T15:02:05;8.70;90.20
20288;DHT22;10303;51.960;8.372;2022-11-20T15:04:56;8.70;90.30
20288;DHT22;10303;51.960;8.372;2022-11-20T15:07:30;8.60;90.40
20288;DHT22;10303;51.960;8.372;2022-11-20T15:10:08;8.50;90.40
20288;DHT22;10303;51.960;8.372;2022-11-20T15:12:54;8.40;90.40
20288;DHT22;10303;51.960;8.372;2022-11-20T15:15:29;8.40;90.60
20288;DHT22;10303;51.960;8.372;2022-11-20T15:17:56;8.30;90.60
20288;DHT22;10303;51.960;8.372;2022-11-20T15:20:28;8.30;90.60
20288;DHT22;10303;51.960;8.372;2022-11-20T15:22:57;8.20;90.70
20288;DHT22;10303;51.960;8.372;2022-11-20T15:25:23;8.20;90.70
20288;DHT22;10303;51.960;8.372;2022-11-20T15:27:56;8.10;90.80
20288;DHT22;10303;51.960;8.372;2022-11-20T15:30:23;8.00;90.90
20288;DHT22;10303;51.960;8.372;2022-11-20T15:32:49;8.00;90.90
20288;DHT22;10303;51.960;8.372;2022-11-20T15:35:15;8.00;91.00
20288;DHT22;10303;51.960;8.372;2022-11-20T15:37:42;7.90;91.00
20288;DHT22;10303;51.960;8.372;2022-11-20T15:40:09;7.80;91.10
20288;DHT22;10303;51.960;8.372;2022-11-20T15:42:35;7.80;91.20
20288;DHT22;10303;51.960;8.372;2022-11-20T15:45:02;7.80;91.30
20288;DHT22;10303;51.960;8.372;2022-11-20T15:47:31;7.70;91.30
20288;DHT22;10303;51.960;8.372;2022-11-20T15:50:01;7.70;91.40
20288;DHT22;10303;51.960;8.372;2022-11-20T15:52:28;7.70;91.40
20288;DHT22;10303;51.960;8.372;2022-11-20T15:54:54;7.60;91.50
20288;DHT22;10303;51.960;8.372;2022-11-20T15:57:20;7.60;92.00
20288;DHT22;10303;51.960;8.372;2022-11-20T15:59:46;7.60;92.10
20288;DHT22;10303;51.960;8.372;2022-11-20T16:02:14;7.50;91.80
20288;DHT22;10303;51.960;8.372;2022-11-20T16:04:41;7.50;91.70
20288;DHT22;10303;51.960;8.372;2022-11-20T16:07:07;7.60;92.00
20288;DHT22;10303;51.960;8.372;2022-11-20T16:09:34;7.40;91.90
20288;DHT22;10303;51.960;8.372;2022-11-20T16:12:00;7.40;92.20
20288;DHT22;10303;51.960;8.372;2022-11-20T16:14:26;7.40;92.00
20288;DHT22;10303;51.960;8.372;2022-11-20T16:17:12;7.40;92.10
20288;DHT22;10303;51.960;8.372;2022-11-20T16:19:39;7.40;92.10
20288;DHT22;10303;51.960;8.372;2022-11-20T16:22:05;7.30;92.20
20288;DHT22;10303;51.960;8.372;2022-11-20T16:24:31;7.30;92.40
20288;DHT22;10303;51.960;8.372;2022-11-20T16:26:57;7.30;92.30
20288;DHT22;10303;51.960;8.372;2022-11-20T16:29:24;7.30;92.20
20288;DHT22;10303;51.960;8.372;2022-11-20T16:31:49;7.20;92.40
20288;DHT22;10303;51.960;8.372;2022-11-20T16:34:16;7.20;92.70
20288;DHT22;10303;51.960;8.372;2022-11-20T16:36:43;7.20;92.30
20288;DHT22;10303;51.960;8.372;2022-11-20T16:39:11;7.20;92.40
20288;DHT22;10303;51.960;8.372;2022-11-20T16:41:38;7.10;92.30
20288;DHT22;10303;51.960;8.372;2022-11-20T16:44:09;7.10;92.50
20288;DHT22;10303;51.960;8.372;2022-11-20T16:46:36;7.10;92.50
20288;DHT22;10303;51.960;8.372;2022-11-20T16:49:04;7.00;92.40
20288;DHT22;10303;51.960;8.372;2022-11-20T16:51:34;7.10;92.40
20288;DHT22;10303;51.960;8.372;2022-11-20T16:54:01;7.00;92.40
20288;DHT22;10303;51.960;8.372;2022-11-20T16:56:30;7.00;92.50
20288;DHT22;10303;51.960;8.372;2022-11-20T16:58:58;7.00;92.50
20288;DHT22;10303;51.960;8.372;2022-11-20T17:01:26;7.00;92.50
20288;DHT22;10303;51.960;8.372;2022-11-20T17:03:55;7.00;92.50
20288;DHT22;10303;51.960;8.372;2022-11-20T17:06:28;6.90;92.40
20288;DHT22;10303;51.960;8.372;2022-11-20T17:08:56;6.90;92.50
20288;DHT22;10303;51.960;8.372;2022-11-20T17:11:24;6.90;92.50
20288;DHT22;10303;51.960;8.372;2022-11-20T17:13:51;6.90;92.50
20288;DHT22;10303;51.960;8.372;2022-11-20T17:16:22;6.90;92.50
20288;DHT22;10303;51.960;8.372;2022-11-20T17:18:49;6.90;92.60
20288;DHT22;10303;51.960;8.372;2022-11-20T17:21:17;6.90;92.60
20288;DHT22;10303;51.960;8.372;2022-11-20T17:23:45;6.80;92.60
20288;DHT22;10303;51.960;8.372;2022-11-20T17:26:14;6.80;92.60
20288;DHT22;10303;51.960;8.372;2022-11-20T17:28:43;6.80;92.60
20288;DHT22;10303;51.960;8.372;2022-11-20T17:31:15;6.80;92.60
20288;DHT22;10303;51.960;8.372;2022-11-20T17:33:44;6.80;92.70
20288;DHT22;10303;51.960;8.372;2022-11-20T17:36:13;6.80;92.70
20288;DHT22;10303;51.960;8.372;2022-11-20T17:38:41;6.80;92.70
20288;DHT22;10303;51.960;8.372;2022-11-20T17:41:10;6.80;92.70